sensor_id;sensor_type;location;lat;lon;timestamp;P1;durP1;ratioP1;P2;durP2;ratioP2
495;SDS011;39559;48.630;9.162;2023-03-01T00:00:03;28.90;;;17.50;;
495;SDS011;39559;48.630;9.162;2023-03-01T00:02:29;30.52;;;19.10;;
495;SDS011;39559;48.630;9.162;2023-03-01T00:07:04;27.15;;;17.30;;
495;SDS011;39559;48.630;9.162;2023-03-01T00:09:30;24.30;;;15.40;;
495;SDS011;39559;48.630;9.162;2023-03-01T00:11:55;24.93;;;15.60;;
495;SDS011;39559;48.630;9.162;2023-03-01T00:14:23;25.38;;;16.30;;
495;SDS011;39559;48.630;9.162;2023-03-01T00:16:49;31.73;;;17.67;;
495;SDS011;39559;48.630;9.162;2023-03-01T00:19:16;27.80;;;17.37;;
495;SDS011;39559;48.630;9.162;2023-03-01T00:21:42;26.45;;;18.00;;
495;SDS011;39559;48.630;9.162;2023-03-01T00:24:08;28.93;;;17.00;;
495;SDS011;39559;48.630;9.162;2023-03-01T00:26:34;27.75;;;17.33;;
495;SDS011;39559;48.630;9.162;2023-03-01T00:31:07;26.40;;;15.35;;
495;SDS011;39559;48.630;9.162;2023-03-01T00:33:37;22.35;;;15.10;;
495;SDS011;39559;48.630;9.162;2023-03-01T00:36:03;28.33;;;15.10;;
495;SDS011;39559;48.630;9.162;2023-03-01T00:38:29;25.88;;;15.00;;
495;SDS011;39559;48.630;9.162;2023-03-01T00:40:55;22.40;;;14.87;;
495;SDS011;39559;48.630;9.162;2023-03-01T00:43:21;27.90;;;15.97;;
495;SDS011;39559;48.630;9.162;2023-03-01T00:45:46;26.10;;;17.13;;
495;SDS011;39559;48.630;9.162;2023-03-01T00:48:12;28.03;;;15.67;;
495;SDS011;39559;48.630;9.162;2023-03-01T00:50:37;27.10;;;16.73;;
495;SDS011;39559;48.630;9.162;2023-03-01T00:55:09;26.45;;;15.35;;
495;SDS011;39559;48.630;9.162;2023-03-01T00:57:35;26.65;;;15.20;;
495;SDS011;39559;48.630;9.162;2023-03-01T01:00:01;20.60;;;15.13;;
495;SDS011;39559;48.630;9.162;2023-03-01T01:02:29;25.05;;;14.70;;
495;SDS011;39559;48.630;9.162;2023-03-01T01:04:54;21.67;;;15.03;;
495;SDS011;39559;48.630;9.162;2023-03-01T01:07:20;23.50;;;14.30;;
495;SDS011;39559;48.630;9.162;2023-03-01T01:09:46;21.00;;;14.73;;
495;SDS011;39559;48.630;9.162;2023-03-01T01:12:11;26.97;;;16.13;;
495;SDS011;39559;48.630;9.162;2023-03-01T01:14:37;21.60;;;13.70;;
495;SDS011;39559;48.630;9.162;2023-03-01T01:19:11;21.30;;;14.70;;
495;SDS011;39559;48.630;9.162;2023-03-01T01:21:37;28.83;;;15.87;;
495;SDS011;39559;48.630;9.162;2023-03-01T01:24:03;25.23;;;16.03;;
495;SDS011;39559;48.630;9.162;2023-03-01T01:26:30;23.77;;;14.70;;
495;SDS011;39559;48.630;9.162;2023-03-01T01:28:58;25.20;;;16.83;;
495;SDS011;39559;48.630;9.162;2023-03-01T01:31:24;28.77;;;17.20;;
495;SDS011;39559;48.630;9.162;2023-03-01T01:33:51;23.13;;;14.85;;
495;SDS011;39559;48.630;9.162;2023-03-01T01:36:18;25.92;;;14.82;;
495;SDS011;39559;48.630;9.162;2023-03-01T01:38:43;28.07;;;16.40;;
495;SDS011;39559;48.630;9.162;2023-03-01T01:43:27;24.65;;;15.38;;
495;SDS011;39559;48.630;9.162;2023-03-01T01:45:56;27.98;;;16.85;;
495;SDS011;39559;48.630;9.162;2023-03-01T01:48:47;24.27;;;14.95;;
495;SDS011;39559;48.630;9.162;2023-03-01T01:51:21;21.15;;;14.43;;
495;SDS011;39559;48.630;9.162;2023-03-01T01:53:53;26.58;;;15.90;;
495;SDS011;39559;48.630;9.162;2023-03-01T01:56:23;25.17;;;15.77;;
495;SDS011;39559;48.630;9.162;2023-03-01T01:58:51;29.00;;;16.27;;
495;SDS011;39559;48.630;9.162;2023-03-01T02:01:17;26.20;;;16.17;;
495;SDS011;39559;48.630;9.162;2023-03-01T02:03:44;25.03;;;14.80;;
495;SDS011;39559;48.630;9.162;2023-03-01T02:07:17;25.77;;;16.00;;
495;SDS011;39559;48.630;9.162;2023-03-01T02:09:47;25.23;;;15.57;;
495;SDS011;39559;48.630;9.162;2023-03-01T02:12:14;27.25;;;16.65;;
495;SDS011;39559;48.630;9.162;2023-03-01T02:14:43;30.13;;;17.20;;
495;SDS011;39559;48.630;9.162;2023-03-01T02:17:09;25.63;;;16.70;;
495;SDS011;39559;48.630;9.162;2023-03-01T02:27:21;25.33;;;17.33;;
495;SDS011;39559;48.630;9.162;2023-03-01T02:31:19;28.50;;;16.02;;
495;SDS011;39559;48.630;9.162;2023-03-01T02:34:04;26.38;;;15.63;;
495;SDS011;39559;48.630;9.162;2023-03-01T02:36:35;27.35;;;15.35;;
495;SDS011;39559;48.630;9.162;2023-03-01T02:39:05;28.10;;;16.45;;
495;SDS011;39559;48.630;9.162;2023-03-01T02:41:34;24.48;;;16.05;;
495;SDS011;39559;48.630;9.162;2023-03-01T02:44:03;26.35;;;17.20;;
495;SDS011;39559;48.630;9.162;2023-03-01T02:46:29;25.70;;;16.25;;
495;SDS011;39559;48.630;9.162;2023-03-01T02:48:56;24.40;;;15.20;;
495;SDS011;39559;48.630;9.162;2023-03-01T02:55:22;25.80;;;16.25;;
495;SDS011;39559;48.630;9.162;2023-03-01T02:57:47;29.13;;;17.70;;
495;SDS011;39559;48.630;9.162;2023-03-01T03:00:18;28.20;;;17.40;;
495;SDS011;39559;48.630;9.162;2023-03-01T03:02:48;28.08;;;18.00;;
495;SDS011;39559;48.630;9.162;2023-03-01T03:05:26;27.30;;;17.52;;
495;SDS011;39559;48.630;9.162;2023-03-01T03:07:53;25.58;;;16.23;;
495;SDS011;39559;48.630;9.162;2023-03-01T03:10:20;24.57;;;16.90;;
495;SDS011;39559;48.630;9.162;2023-03-01T03:12:52;27.40;;;16.95;;
495;SDS011;39559;48.630;9.162;2023-03-01T03:15:29;25.50;;;15.95;;
495;SDS011;39559;48.630;9.162;2023-03-01T03:19:24;27.75;;;16.35;;
495;SDS011;39559;48.630;9.162;2023-03-01T03:21:50;25.37;;;16.70;;
495;SDS011;39559;48.630;9.162;2023-03-01T03:24:15;24.57;;;16.27;;
495;SDS011;39559;48.630;9.162;2023-03-01T03:26:42;24.17;;;15.77;;
495;SDS011;39559;48.630;9.162;2023-03-01T03:29:08;28.53;;;15.50;;
495;SDS011;39559;48.630;9.162;2023-03-01T03:31:33;25.93;;;16.20;;
495;SDS011;39559;48.630;9.162;2023-03-01T03:33:59;30.57;;;16.63;;
495;SDS011;39559;48.630;9.162;2023-03-01T03:36:24;24.37;;;16.00;;
495;SDS011;39559;48.630;9.162;2023-03-01T03:38:50;24.57;;;16.50;;
495;SDS011;39559;48.630;9.162;2023-03-01T03:43:28;29.52;;;18.00;;
495;SDS011;39559;48.630;9.162;2023-03-01T03:45:55;24.05;;;16.52;;
495;SDS011;39559;48.630;9.162;2023-03-01T03:48:22;25.30;;;16.33;;
495;SDS011;39559;48.630;9.162;2023-03-01T03:50:49;26.00;;;16.40;;
495;SDS011;39559;48.630;9.162;2023-03-01T03:53:17;27.35;;;17.67;;
495;SDS011;39559;48.630;9.162;2023-03-01T03:55:43;25.35;;;16.90;;
495;SDS011;39559;48.630;9.162;2023-03-01T03:58:10;27.63;;;17.20;;
495;SDS011;39559;48.630;9.162;2023-03-01T04:00:39;29.50;;;17.35;;
495;SDS011;39559;48.630;9.162;2023-03-01T04:03:07;27.20;;;17.17;;
495;SDS011;39559;48.630;9.162;2023-03-01T04:07:30;24.17;;;16.73;;
495;SDS011;39559;48.630;9.162;2023-03-01T04:09:56;23.93;;;16.17;;
495;SDS011;39559;48.630;9.162;2023-03-01T04:12:21;24.07;;;16.67;;
495;SDS011;39559;48.630;9.162;2023-03-01T04:14:48;28.50;;;17.38;;
495;SDS011;39559;48.630;9.162;2023-03-01T04:17:14;27.60;;;16.20;;
495;SDS011;39559;48.630;9.162;2023-03-01T04:19:39;28.13;;;17.00;;
495;SDS011;39559;48.630;9.162;2023-03-01T04:22:05;26.20;;;17.40;;
495;SDS011;39559;48.630;9.162;2023-03-01T04:24:34;28.58;;;17.08;;
495;SDS011;39559;48.630;9.162;2023-03-01T04:27:01;28.13;;;16.85;;
495;SDS011;39559;48.630;9.162;2023-03-01T04:31:33;24.63;;;16.80;;
495;SDS011;39559;48.630;9.162;2023-03-01T04:33:59;23.87;;;14.87;;
495;SDS011;39559;48.630;9.162;2023-03-01T04:36:25;23.90;;;16.17;;
495;SDS011;39559;48.630;9.162;2023-03-01T04:38:53;24.08;;;16.67;;
495;SDS011;39559;48.630;9.162;2023-03-01T04:41:19;26.80;;;16.67;;
495;SDS011;39559;48.630;9.162;2023-03-01T04:43:47;26.85;;;17.42;;
495;SDS011;39559;48.630;9.162;2023-03-01T04:46:14;30.98;;;18.90;;
495;SDS011;39559;48.630;9.162;2023-03-01T04:48:42;27.98;;;18.20;;
495;SDS011;39559;48.630;9.162;2023-03-01T04:51:09;26.63;;;17.70;;
495;SDS011;39559;48.630;9.162;2023-03-01T04:55:36;26.75;;;17.40;;
495;SDS011;39559;48.630;9.162;2023-03-01T04:58:01;35.37;;;21.63;;
495;SDS011;39559;48.630;9.162;2023-03-01T05:00:27;49.07;;;31.00;;
495;SDS011;39559;48.630;9.162;2023-03-01T05:02:53;43.73;;;27.40;;
495;SDS011;39559;48.630;9.162;2023-03-01T05:05:41;45.40;;;26.27;;
495;SDS011;39559;48.630;9.162;2023-03-01T05:08:07;32.08;;;18.40;;
495;SDS011;39559;48.630;9.162;2023-03-01T05:10:34;33.38;;;19.90;;
495;SDS011;39559;48.630;9.162;2023-03-01T05:13:01;29.30;;;18.52;;
495;SDS011;39559;48.630;9.162;2023-03-01T05:15:29;29.60;;;19.15;;
495;SDS011;39559;48.630;9.162;2023-03-01T05:19:38;27.77;;;17.48;;
495;SDS011;39559;48.630;9.162;2023-03-01T05:22:04;31.43;;;19.73;;
495;SDS011;39559;48.630;9.162;2023-03-01T05:24:31;32.40;;;18.20;;
495;SDS011;39559;48.630;9.162;2023-03-01T05:26:58;36.50;;;20.55;;
495;SDS011;39559;48.630;9.162;2023-03-01T05:29:25;30.30;;;18.98;;
495;SDS011;39559;48.630;9.162;2023-03-01T05:31:55;28.25;;;19.35;;
495;SDS011;39559;48.630;9.162;2023-03-01T05:34:26;32.53;;;19.95;;
495;SDS011;39559;48.630;9.162;2023-03-01T05:36:54;34.28;;;19.85;;
495;SDS011;39559;48.630;9.162;2023-03-01T05:39:20;34.00;;;19.77;;
495;SDS011;39559;48.630;9.162;2023-03-01T05:43:39;29.53;;;20.10;;
495;SDS011;39559;48.630;9.162;2023-03-01T05:46:08;30.20;;;19.10;;
495;SDS011;39559;48.630;9.162;2023-03-01T05:48:37;31.05;;;18.88;;
495;SDS011;39559;48.630;9.162;2023-03-01T05:51:04;33.55;;;19.45;;
495;SDS011;39559;48.630;9.162;2023-03-01T05:53:29;35.63;;;20.50;;
495;SDS011;39559;48.630;9.162;2023-03-01T05:55:55;31.87;;;19.93;;
495;SDS011;39559;48.630;9.162;2023-03-01T05:58:20;27.90;;;19.37;;
495;SDS011;39559;48.630;9.162;2023-03-01T06:00:47;27.17;;;17.70;;
495;SDS011;39559;48.630;9.162;2023-03-01T06:03:14;33.85;;;19.58;;
495;SDS011;39559;48.630;9.162;2023-03-01T06:07:44;29.50;;;18.20;;
495;SDS011;39559;48.630;9.162;2023-03-01T06:10:10;27.80;;;17.97;;
495;SDS011;39559;48.630;9.162;2023-03-01T06:12:37;29.38;;;19.00;;
495;SDS011;39559;48.630;9.162;2023-03-01T06:15:04;33.45;;;20.17;;
495;SDS011;39559;48.630;9.162;2023-03-01T06:17:32;29.23;;;18.52;;
495;SDS011;39559;48.630;9.162;2023-03-01T06:20:36;34.45;;;21.27;;
495;SDS011;39559;48.630;9.162;2023-03-01T06:22:57;31.65;;;18.98;;
495;SDS011;39559;48.630;9.162;2023-03-01T06:25:23;29.05;;;19.13;;
495;SDS011;39559;48.630;9.162;2023-03-01T06:27:50;29.67;;;18.95;;
495;SDS011;39559;48.630;9.162;2023-03-01T06:31:47;27.05;;;16.00;;
495;SDS011;39559;48.630;9.162;2023-03-01T06:34:12;25.87;;;15.03;;
495;SDS011;39559;48.630;9.162;2023-03-01T06:36:38;30.30;;;17.10;;
495;SDS011;39559;48.630;9.162;2023-03-01T06:39:05;22.70;;;15.13;;
495;SDS011;39559;48.630;9.162;2023-03-01T06:41:31;29.17;;;15.30;;
495;SDS011;39559;48.630;9.162;2023-03-01T06:43:57;28.65;;;16.00;;
495;SDS011;39559;48.630;9.162;2023-03-01T06:46:23;31.13;;;15.90;;
495;SDS011;39559;48.630;9.162;2023-03-01T06:48:49;25.53;;;15.80;;
495;SDS011;39559;48.630;9.162;2023-03-01T06:51:15;25.47;;;15.10;;
495;SDS011;39559;48.630;9.162;2023-03-01T06:55:56;30.48;;;15.98;;
495;SDS011;39559;48.630;9.162;2023-03-01T06:58:22;26.10;;;14.85;;
495;SDS011;39559;48.630;9.162;2023-03-01T07:00:48;25.92;;;15.70;;
495;SDS011;39559;48.630;9.162;2023-03-01T07:03:13;26.37;;;15.70;;
495;SDS011;39559;48.630;9.162;2023-03-01T07:05:39;27.13;;;16.50;;
495;SDS011;39559;48.630;9.162;2023-03-01T07:08:05;30.77;;;16.93;;
495;SDS011;39559;48.630;9.162;2023-03-01T07:10:30;26.07;;;15.50;;
495;SDS011;39559;48.630;9.162;2023-03-01T07:12:56;27.40;;;16.77;;
495;SDS011;39559;48.630;9.162;2023-03-01T07:15:22;29.35;;;15.48;;
495;SDS011;39559;48.630;9.162;2023-03-01T07:19:52;26.42;;;15.32;;
495;SDS011;39559;48.630;9.162;2023-03-01T07:22:19;23.02;;;15.07;;
495;SDS011;39559;48.630;9.162;2023-03-01T07:24:44;26.37;;;16.37;;
495;SDS011;39559;48.630;9.162;2023-03-01T07:27:10;25.97;;;16.17;;
495;SDS011;39559;48.630;9.162;2023-03-01T07:29:36;30.67;;;17.48;;
495;SDS011;39559;48.630;9.162;2023-03-01T07:32:02;28.00;;;17.33;;
495;SDS011;39559;48.630;9.162;2023-03-01T07:34:28;29.90;;;17.02;;
495;SDS011;39559;48.630;9.162;2023-03-01T07:36:53;25.20;;;16.43;;
495;SDS011;39559;48.630;9.162;2023-03-01T07:39:19;26.03;;;15.50;;
495;SDS011;39559;48.630;9.162;2023-03-01T07:43:54;30.55;;;17.55;;
495;SDS011;39559;48.630;9.162;2023-03-01T07:46:20;27.90;;;17.27;;
495;SDS011;39559;48.630;9.162;2023-03-01T07:48:45;32.43;;;17.90;;
495;SDS011;39559;48.630;9.162;2023-03-01T07:51:14;32.80;;;18.20;;
495;SDS011;39559;48.630;9.162;2023-03-01T07:53:39;29.77;;;16.80;;
495;SDS011;39559;48.630;9.162;2023-03-01T07:56:09;26.83;;;17.03;;
495;SDS011;39559;48.630;9.162;2023-03-01T07:58:37;26.70;;;16.00;;
495;SDS011;39559;48.630;9.162;2023-03-01T08:01:04;28.55;;;17.45;;
495;SDS011;39559;48.630;9.162;2023-03-01T08:03:31;31.30;;;18.13;;
495;SDS011;39559;48.630;9.162;2023-03-01T08:07:58;33.20;;;18.65;;
495;SDS011;39559;48.630;9.162;2023-03-01T08:10:23;28.80;;;16.80;;
495;SDS011;39559;48.630;9.162;2023-03-01T08:12:50;26.90;;;16.80;;
495;SDS011;39559;48.630;9.162;2023-03-01T08:15:16;30.17;;;16.70;;
495;SDS011;39559;48.630;9.162;2023-03-01T08:17:43;28.88;;;15.05;;
495;SDS011;39559;48.630;9.162;2023-03-01T08:20:09;26.43;;;15.40;;
495;SDS011;39559;48.630;9.162;2023-03-01T08:22:37;24.42;;;14.23;;
495;SDS011;39559;48.630;9.162;2023-03-01T08:25:03;23.83;;;12.47;;
495;SDS011;39559;48.630;9.162;2023-03-01T08:27:29;25.85;;;14.90;;
495;SDS011;39559;48.630;9.162;2023-03-01T08:32:00;21.50;;;12.90;;
495;SDS011;39559;48.630;9.162;2023-03-01T08:34:26;27.83;;;15.40;;
495;SDS011;39559;48.630;9.162;2023-03-01T08:36:51;23.90;;;14.47;;
495;SDS011;39559;48.630;9.162;2023-03-01T08:39:18;16.67;;;11.90;;
495;SDS011;39559;48.630;9.162;2023-03-01T08:41:46;14.98;;;11.35;;
495;SDS011;39559;48.630;9.162;2023-03-01T08:44:12;22.23;;;12.77;;
495;SDS011;39559;48.630;9.162;2023-03-01T08:46:39;20.23;;;13.38;;
495;SDS011;39559;48.630;9.162;2023-03-01T08:49:06;18.70;;;12.30;;
495;SDS011;39559;48.630;9.162;2023-03-01T08:51:39;27.70;;;13.95;;
495;SDS011;39559;48.630;9.162;2023-03-01T08:56:03;18.65;;;11.65;;
495;SDS011;39559;48.630;9.162;2023-03-01T08:58:29;17.10;;;12.30;;
495;SDS011;39559;48.630;9.162;2023-03-01T09:00:55;17.10;;;11.68;;
495;SDS011;39559;48.630;9.162;2023-03-01T09:03:22;19.90;;;11.43;;
495;SDS011;39559;48.630;9.162;2023-03-01T09:05:48;20.40;;;12.32;;
495;SDS011;39559;48.630;9.162;2023-03-01T09:08:15;19.55;;;11.15;;
495;SDS011;39559;48.630;9.162;2023-03-01T09:10:41;20.83;;;12.18;;
495;SDS011;39559;48.630;9.162;2023-03-01T09:13:07;21.70;;;13.70;;
495;SDS011;39559;48.630;9.162;2023-03-01T09:15:33;29.03;;;19.90;;
495;SDS011;39559;48.630;9.162;2023-03-01T09:20:05;28.75;;;18.13;;
495;SDS011;39559;48.630;9.162;2023-03-01T09:22:33;24.90;;;16.87;;
495;SDS011;39559;48.630;9.162;2023-03-01T09:25:00;29.35;;;17.88;;
495;SDS011;39559;48.630;9.162;2023-03-01T09:27:25;27.48;;;18.45;;
495;SDS011;39559;48.630;9.162;2023-03-01T09:29:51;26.90;;;15.70;;
495;SDS011;39559;48.630;9.162;2023-03-01T09:32:17;23.03;;;15.23;;
495;SDS011;39559;48.630;9.162;2023-03-01T09:34:42;23.60;;;14.60;;
495;SDS011;39559;48.630;9.162;2023-03-01T09:37:26;24.00;;;15.73;;
495;SDS011;39559;48.630;9.162;2023-03-01T09:39:52;27.88;;;16.58;;
495;SDS011;39559;48.630;9.162;2023-03-01T09:44:13;28.85;;;16.88;;
495;SDS011;39559;48.630;9.162;2023-03-01T09:46:41;24.40;;;15.63;;
495;SDS011;39559;48.630;9.162;2023-03-01T09:49:19;25.85;;;16.27;;
495;SDS011;39559;48.630;9.162;2023-03-01T09:51:57;25.75;;;16.50;;
495;SDS011;39559;48.630;9.162;2023-03-01T09:54:29;25.77;;;15.13;;
495;SDS011;39559;48.630;9.162;2023-03-01T09:57:04;26.53;;;15.63;;
495;SDS011;39559;48.630;9.162;2023-03-01T09:59:49;24.50;;;15.68;;
495;SDS011;39559;48.630;9.162;2023-03-01T10:10:37;26.20;;;16.30;;
495;SDS011;39559;48.630;9.162;2023-03-01T10:13:14;29.00;;;16.10;;
495;SDS011;39559;48.630;9.162;2023-03-01T10:15:55;26.08;;;16.05;;
495;SDS011;39559;48.630;9.162;2023-03-01T10:18:27;27.17;;;16.80;;
495;SDS011;39559;48.630;9.162;2023-03-01T10:23:40;24.77;;;15.40;;
495;SDS011;39559;48.630;9.162;2023-03-01T10:26:12;25.30;;;15.73;;
495;SDS011;39559;48.630;9.162;2023-03-01T10:29:07;21.33;;;14.77;;
495;SDS011;39559;48.630;9.162;2023-03-01T10:32:12;26.65;;;16.05;;
495;SDS011;39559;48.630;9.162;2023-03-01T10:34:38;24.37;;;16.03;;
495;SDS011;39559;48.630;9.162;2023-03-01T10:42:35;25.17;;;15.30;;
495;SDS011;39559;48.630;9.162;2023-03-01T10:45:29;23.90;;;15.70;;
495;SDS011;39559;48.630;9.162;2023-03-01T10:50:33;27.50;;;17.52;;
495;SDS011;39559;48.630;9.162;2023-03-01T10:53:02;23.70;;;16.20;;
495;SDS011;39559;48.630;9.162;2023-03-01T10:56:15;26.60;;;16.85;;
495;SDS011;39559;48.630;9.162;2023-03-01T10:58:56;26.73;;;16.13;;
495;SDS011;39559;48.630;9.162;2023-03-01T11:01:27;23.55;;;16.10;;
495;SDS011;39559;48.630;9.162;2023-03-01T11:06:36;24.38;;;16.17;;
495;SDS011;39559;48.630;9.162;2023-03-01T11:11:51;25.33;;;15.88;;
495;SDS011;39559;48.630;9.162;2023-03-01T11:14:20;23.02;;;16.35;;
495;SDS011;39559;48.630;9.162;2023-03-01T11:16:48;25.15;;;15.70;;
495;SDS011;39559;48.630;9.162;2023-03-01T11:20:35;23.45;;;14.40;;
495;SDS011;39559;48.630;9.162;2023-03-01T11:23:05;21.42;;;14.95;;
495;SDS011;39559;48.630;9.162;2023-03-01T11:25:37;22.35;;;14.98;;
495;SDS011;39559;48.630;9.162;2023-03-01T11:28:06;20.90;;;14.75;;
495;SDS011;39559;48.630;9.162;2023-03-01T11:36:06;23.98;;;14.75;;
495;SDS011;39559;48.630;9.162;2023-03-01T11:38:38;23.23;;;14.52;;
495;SDS011;39559;48.630;9.162;2023-03-01T11:44:19;22.05;;;13.80;;
495;SDS011;39559;48.630;9.162;2023-03-01T11:47:03;20.40;;;13.63;;
495;SDS011;39559;48.630;9.162;2023-03-01T11:52:25;21.77;;;13.93;;
495;SDS011;39559;48.630;9.162;2023-03-01T11:55:17;22.13;;;14.90;;
495;SDS011;39559;48.630;9.162;2023-03-01T12:11:16;20.85;;;17.45;;
495;SDS011;39559;48.630;9.162;2023-03-01T12:22:42;23.17;;;19.13;;
495;SDS011;39559;48.630;9.162;2023-03-01T12:49:10;21.50;;;12.98;;
495;SDS011;39559;48.630;9.162;2023-03-01T12:51:39;21.35;;;13.90;;
495;SDS011;39559;48.630;9.162;2023-03-01T12:56:23;17.63;;;11.65;;
495;SDS011;39559;48.630;9.162;2023-03-01T13:01:30;18.27;;;12.27;;
495;SDS011;39559;48.630;9.162;2023-03-01T13:12:42;18.45;;;12.55;;
495;SDS011;39559;48.630;9.162;2023-03-01T13:20:22;18.35;;;12.07;;
495;SDS011;39559;48.630;9.162;2023-03-01T13:23:13;17.35;;;11.13;;
495;SDS011;39559;48.630;9.162;2023-03-01T13:28:32;17.50;;;11.10;;
495;SDS011;39559;48.630;9.162;2023-03-01T13:37:00;16.70;;;10.43;;
495;SDS011;39559;48.630;9.162;2023-03-01T13:39:33;15.20;;;10.52;;
495;SDS011;39559;48.630;9.162;2023-03-01T13:44:30;19.05;;;11.75;;
495;SDS011;39559;48.630;9.162;2023-03-01T13:54:58;16.40;;;12.52;;
495;SDS011;39559;48.630;9.162;2023-03-01T13:57:29;18.67;;;11.48;;
495;SDS011;39559;48.630;9.162;2023-03-01T13:59:59;13.57;;;10.00;;
495;SDS011;39559;48.630;9.162;2023-03-01T14:02:25;18.90;;;11.53;;
495;SDS011;39559;48.630;9.162;2023-03-01T14:04:57;16.23;;;11.43;;
495;SDS011;39559;48.630;9.162;2023-03-01T14:08:22;17.48;;;12.20;;
495;SDS011;39559;48.630;9.162;2023-03-01T14:19:15;18.20;;;11.85;;
495;SDS011;39559;48.630;9.162;2023-03-01T14:21:44;16.17;;;11.45;;
495;SDS011;39559;48.630;9.162;2023-03-01T14:24:44;19.70;;;13.95;;
495;SDS011;39559;48.630;9.162;2023-03-01T14:27:08;17.75;;;10.98;;
495;SDS011;39559;48.630;9.162;2023-03-01T14:29:38;17.10;;;10.65;;
495;SDS011;39559;48.630;9.162;2023-03-01T14:32:21;15.98;;;9.50;;
495;SDS011;39559;48.630;9.162;2023-03-01T14:34:50;19.55;;;11.02;;
495;SDS011;39559;48.630;9.162;2023-03-01T14:39:50;14.35;;;8.07;;
495;SDS011;39559;48.630;9.162;2023-03-01T14:42:17;15.25;;;10.32;;
495;SDS011;39559;48.630;9.162;2023-03-01T14:44:46;16.83;;;10.98;;
495;SDS011;39559;48.630;9.162;2023-03-01T14:47:16;13.90;;;9.80;;
495;SDS011;39559;48.630;9.162;2023-03-01T14:50:17;15.85;;;10.18;;
495;SDS011;39559;48.630;9.162;2023-03-01T14:53:36;13.48;;;9.65;;
495;SDS011;39559;48.630;9.162;2023-03-01T14:56:19;16.92;;;13.18;;
495;SDS011;39559;48.630;9.162;2023-03-01T14:58:45;16.33;;;10.73;;
495;SDS011;39559;48.630;9.162;2023-03-01T15:01:16;18.40;;;13.40;;
495;SDS011;39559;48.630;9.162;2023-03-01T15:03:44;17.60;;;12.30;;
495;SDS011;39559;48.630;9.162;2023-03-01T15:06:14;15.50;;;13.05;;
495;SDS011;39559;48.630;9.162;2023-03-01T15:08:47;15.23;;;12.20;;
495;SDS011;39559;48.630;9.162;2023-03-01T15:11:28;18.33;;;13.10;;
495;SDS011;39559;48.630;9.162;2023-03-01T15:13:56;17.75;;;12.45;;
495;SDS011;39559;48.630;9.162;2023-03-01T15:16:23;20.42;;;14.85;;
495;SDS011;39559;48.630;9.162;2023-03-01T15:20:19;20.05;;;13.30;;
495;SDS011;39559;48.630;9.162;2023-03-01T15:22:53;15.10;;;11.90;;
495;SDS011;39559;48.630;9.162;2023-03-01T15:25:27;16.70;;;12.77;;
495;SDS011;39559;48.630;9.162;2023-03-01T15:27:55;21.27;;;13.45;;
495;SDS011;39559;48.630;9.162;2023-03-01T15:30:23;21.30;;;13.80;;
495;SDS011;39559;48.630;9.162;2023-03-01T15:35:44;18.60;;;13.60;;
495;SDS011;39559;48.630;9.162;2023-03-01T15:40:57;21.77;;;14.05;;
495;SDS011;39559;48.630;9.162;2023-03-01T15:44:33;19.90;;;13.55;;
495;SDS011;39559;48.630;9.162;2023-03-01T15:47:01;20.63;;;14.60;;
495;SDS011;39559;48.630;9.162;2023-03-01T15:49:47;19.33;;;13.52;;
495;SDS011;39559;48.630;9.162;2023-03-01T15:52:35;19.67;;;12.80;;
495;SDS011;39559;48.630;9.162;2023-03-01T15:55:06;22.95;;;14.27;;
495;SDS011;39559;48.630;9.162;2023-03-01T15:57:40;20.42;;;13.68;;
495;SDS011;39559;48.630;9.162;2023-03-01T16:00:06;22.60;;;13.70;;
495;SDS011;39559;48.630;9.162;2023-03-01T16:02:38;18.88;;;12.60;;
495;SDS011;39559;48.630;9.162;2023-03-01T16:05:05;18.38;;;12.77;;
495;SDS011;39559;48.630;9.162;2023-03-01T16:08:17;21.58;;;13.32;;
495;SDS011;39559;48.630;9.162;2023-03-01T16:10:43;23.05;;;12.85;;
495;SDS011;39559;48.630;9.162;2023-03-01T16:13:11;20.38;;;14.35;;
495;SDS011;39559;48.630;9.162;2023-03-01T16:15:37;18.73;;;13.15;;
495;SDS011;39559;48.630;9.162;2023-03-01T16:18:04;17.85;;;12.13;;
495;SDS011;39559;48.630;9.162;2023-03-01T16:20:35;18.77;;;13.32;;
495;SDS011;39559;48.630;9.162;2023-03-01T16:23:01;20.63;;;13.10;;
495;SDS011;39559;48.630;9.162;2023-03-01T16:25:28;18.50;;;11.75;;
495;SDS011;39559;48.630;9.162;2023-03-01T16:27:55;23.08;;;13.52;;
495;SDS011;39559;48.630;9.162;2023-03-01T16:32:16;18.90;;;12.98;;
495;SDS011;39559;48.630;9.162;2023-03-01T16:34:42;19.17;;;12.47;;
495;SDS011;39559;48.630;9.162;2023-03-01T16:37:07;19.30;;;13.53;;
495;SDS011;39559;48.630;9.162;2023-03-01T16:39:32;19.83;;;14.00;;
495;SDS011;39559;48.630;9.162;2023-03-01T16:41:59;17.53;;;12.40;;
495;SDS011;39559;48.630;9.162;2023-03-01T16:44:26;21.35;;;13.07;;
495;SDS011;39559;48.630;9.162;2023-03-01T16:46:51;17.97;;;12.47;;
495;SDS011;39559;48.630;9.162;2023-03-01T16:49:17;19.20;;;13.30;;
495;SDS011;39559;48.630;9.162;2023-03-01T16:51:43;23.67;;;14.07;;
495;SDS011;39559;48.630;9.162;2023-03-01T16:56:15;20.15;;;13.10;;
495;SDS011;39559;48.630;9.162;2023-03-01T16:58:41;25.63;;;14.27;;
495;SDS011;39559;48.630;9.162;2023-03-01T17:01:09;25.70;;;14.73;;
495;SDS011;39559;48.630;9.162;2023-03-01T17:03:41;23.13;;;14.82;;
495;SDS011;39559;48.630;9.162;2023-03-01T17:06:09;24.50;;;14.70;;
495;SDS011;39559;48.630;9.162;2023-03-01T17:08:37;25.40;;;15.52;;
495;SDS011;39559;48.630;9.162;2023-03-01T17:11:07;23.73;;;15.00;;
495;SDS011;39559;48.630;9.162;2023-03-01T17:13:35;24.25;;;17.00;;
495;SDS011;39559;48.630;9.162;2023-03-01T17:16:03;26.20;;;16.58;;
495;SDS011;39559;48.630;9.162;2023-03-01T17:20:14;29.70;;;16.90;;
495;SDS011;39559;48.630;9.162;2023-03-01T17:22:40;26.40;;;16.80;;
495;SDS011;39559;48.630;9.162;2023-03-01T17:25:07;23.07;;;15.70;;
495;SDS011;39559;48.630;9.162;2023-03-01T17:27:34;27.45;;;16.83;;
495;SDS011;39559;48.630;9.162;2023-03-01T17:30:02;25.27;;;16.48;;
495;SDS011;39559;48.630;9.162;2023-03-01T17:32:28;27.13;;;16.38;;
495;SDS011;39559;48.630;9.162;2023-03-01T17:34:53;24.60;;;16.60;;
495;SDS011;39559;48.630;9.162;2023-03-01T17:37:19;27.90;;;17.30;;
495;SDS011;39559;48.630;9.162;2023-03-01T17:39:44;26.63;;;17.90;;
495;SDS011;39559;48.630;9.162;2023-03-01T17:44:13;25.40;;;16.30;;
495;SDS011;39559;48.630;9.162;2023-03-01T17:46:42;27.48;;;18.60;;
495;SDS011;39559;48.630;9.162;2023-03-01T17:49:07;27.47;;;17.97;;
495;SDS011;39559;48.630;9.162;2023-03-01T17:51:33;23.77;;;15.83;;
495;SDS011;39559;48.630;9.162;2023-03-01T17:53:58;29.43;;;16.63;;
495;SDS011;39559;48.630;9.162;2023-03-01T17:56:24;25.10;;;16.27;;
495;SDS011;39559;48.630;9.162;2023-03-01T17:58:49;26.17;;;15.50;;
495;SDS011;39559;48.630;9.162;2023-03-01T18:01:16;27.20;;;16.43;;
495;SDS011;39559;48.630;9.162;2023-03-01T18:03:44;29.83;;;17.23;;
495;SDS011;39559;48.630;9.162;2023-03-01T18:08:13;25.73;;;17.05;;
495;SDS011;39559;48.630;9.162;2023-03-01T18:10:38;24.73;;;15.33;;
495;SDS011;39559;48.630;9.162;2023-03-01T18:13:04;25.35;;;15.15;;
495;SDS011;39559;48.630;9.162;2023-03-01T18:15:31;29.88;;;15.50;;
495;SDS011;39559;48.630;9.162;2023-03-01T18:17:57;28.27;;;17.25;;
495;SDS011;39559;48.630;9.162;2023-03-01T18:20:23;27.97;;;16.73;;
495;SDS011;39559;48.630;9.162;2023-03-01T18:22:49;22.97;;;15.60;;
495;SDS011;39559;48.630;9.162;2023-03-01T18:25:17;27.30;;;17.45;;
495;SDS011;39559;48.630;9.162;2023-03-01T18:27:43;24.25;;;16.10;;